Oakdale, Wisconsin
Current Conditions -  °F | °C
As of 12:58 PM on Thursday 30 Oct 2014 (Local Time) from KVOK Reporting Station
Overcast Overcast  
Wind Chill: 43°   Ceiling: 5000
Heat Index: 46°   Visibility: 10mi
Dew Point: 39°   Wind: 7mph
Humidity: 76%   Direction: NA
Pressure: 30.07"   Gusts: NA
Location:  43.96°N, 90.38°W
Report Text: KVOK 301758Z VRB06KT 10SM BKN050 OVC090 08/04 A3007 RMK AO2A SLP194 57003
Loading
Personal Weather Stations






























Interactive Weather Map
Tropical Storm Tracking
New forecast layout! Learn more

10-Day Weather Forecast

Advertisements
Track Severe Weather on mobile